sensor_id;sensor_type;location;lat;lon;timestamp;P1;durP1;ratioP1;P2;durP2;ratioP2
8279;SDS011;8335;42.646;23.380;2023-04-03T00:01:30;3.70;;;2.77;;
8279;SDS011;8335;42.646;23.380;2023-04-03T00:03:57;4.70;;;2.60;;
8279;SDS011;8335;42.646;23.380;2023-04-03T00:06:24;4.70;;;2.70;;
8279;SDS011;8335;42.646;23.380;2023-04-03T00:08:53;4.50;;;2.70;;
8279;SDS011;8335;42.646;23.380;2023-04-03T00:11:20;3.80;;;2.40;;
8279;SDS011;8335;42.646;23.380;2023-04-03T00:13:47;4.00;;;2.67;;
8279;SDS011;8335;42.646;23.380;2023-04-03T00:16:14;3.37;;;2.60;;
8279;SDS011;8335;42.646;23.380;2023-04-03T00:18:40;2.77;;;2.33;;
8279;SDS011;8335;42.646;23.380;2023-04-03T00:21:07;3.77;;;2.60;;
8279;SDS011;8335;42.646;23.380;2023-04-03T00:23:36;3.10;;;2.33;;
8279;SDS011;8335;42.646;23.380;2023-04-03T00:26:04;3.03;;;2.30;;
8279;SDS011;8335;42.646;23.380;2023-04-03T00:28:30;4.00;;;2.50;;
8279;SDS011;8335;42.646;23.380;2023-04-03T00:30:57;3.50;;;2.53;;
8279;SDS011;8335;42.646;23.380;2023-04-03T00:33:24;4.27;;;2.90;;
8279;SDS011;8335;42.646;23.380;2023-04-03T00:35:51;4.07;;;2.63;;
8279;SDS011;8335;42.646;23.380;2023-04-03T00:38:17;3.33;;;2.50;;
8279;SDS011;8335;42.646;23.380;2023-04-03T00:40:45;3.00;;;2.60;;
8279;SDS011;8335;42.646;23.380;2023-04-03T00:43:16;4.80;;;2.93;;
8279;SDS011;8335;42.646;23.380;2023-04-03T00:45:45;4.17;;;2.57;;
8279;SDS011;8335;42.646;23.380;2023-04-03T00:48:15;3.93;;;2.60;;
8279;SDS011;8335;42.646;23.380;2023-04-03T00:50:44;4.60;;;2.93;;
8279;SDS011;8335;42.646;23.380;2023-04-03T00:53:13;3.23;;;2.43;;
8279;SDS011;8335;42.646;23.380;2023-04-03T00:55:43;3.17;;;2.50;;
8279;SDS011;8335;42.646;23.380;2023-04-03T00:58:11;5.53;;;2.50;;
8279;SDS011;8335;42.646;23.380;2023-04-03T01:00:43;4.50;;;2.67;;
8279;SDS011;8335;42.646;23.380;2023-04-03T01:03:14;6.53;;;2.53;;
8279;SDS011;8335;42.646;23.380;2023-04-03T01:05:41;3.73;;;2.97;;
8279;SDS011;8335;42.646;23.380;2023-04-03T01:08:07;5.67;;;2.90;;
8279;SDS011;8335;42.646;23.380;2023-04-03T01:10:34;5.27;;;2.67;;
8279;SDS011;8335;42.646;23.380;2023-04-03T01:13:01;6.23;;;3.23;;
8279;SDS011;8335;42.646;23.380;2023-04-03T01:15:46;2.80;;;2.50;;
8279;SDS011;8335;42.646;23.380;2023-04-03T01:18:12;3.17;;;2.73;;
8279;SDS011;8335;42.646;23.380;2023-04-03T01:23:54;5.20;;;2.70;;
8279;SDS011;8335;42.646;23.380;2023-04-03T01:26:33;5.23;;;3.07;;
8279;SDS011;8335;42.646;23.380;2023-04-03T01:29:00;3.87;;;2.97;;
8279;SDS011;8335;42.646;23.380;2023-04-03T01:31:30;3.53;;;2.47;;
8279;SDS011;8335;42.646;23.380;2023-04-03T01:34:02;5.40;;;3.27;;
8279;SDS011;8335;42.646;23.380;2023-04-03T01:36:30;6.10;;;3.30;;
8279;SDS011;8335;42.646;23.380;2023-04-03T01:38:58;5.20;;;2.73;;
8279;SDS011;8335;42.646;23.380;2023-04-03T01:41:26;3.90;;;2.83;;
8279;SDS011;8335;42.646;23.380;2023-04-03T01:43:53;3.87;;;3.00;;
8279;SDS011;8335;42.646;23.380;2023-04-03T01:46:20;5.00;;;3.03;;
8279;SDS011;8335;42.646;23.380;2023-04-03T01:48:48;4.43;;;2.90;;
8279;SDS011;8335;42.646;23.380;2023-04-03T01:51:16;4.87;;;3.10;;
8279;SDS011;8335;42.646;23.380;2023-04-03T01:53:43;4.53;;;3.10;;
8279;SDS011;8335;42.646;23.380;2023-04-03T01:56:09;4.60;;;3.23;;
8279;SDS011;8335;42.646;23.380;2023-04-03T01:58:36;5.10;;;3.17;;
8279;SDS011;8335;42.646;23.380;2023-04-03T02:01:03;4.30;;;3.07;;
8279;SDS011;8335;42.646;23.380;2023-04-03T02:03:31;4.30;;;2.90;;
8279;SDS011;8335;42.646;23.380;2023-04-03T02:05:58;4.60;;;2.93;;
8279;SDS011;8335;42.646;23.380;2023-04-03T02:08:27;4.10;;;2.37;;
8279;SDS011;8335;42.646;23.380;2023-04-03T02:10:54;3.73;;;2.80;;
8279;SDS011;8335;42.646;23.380;2023-04-03T02:13:21;3.13;;;2.67;;
8279;SDS011;8335;42.646;23.380;2023-04-03T02:15:47;5.10;;;2.80;;
8279;SDS011;8335;42.646;23.380;2023-04-03T02:18:14;4.67;;;2.97;;
8279;SDS011;8335;42.646;23.380;2023-04-03T02:20:41;3.63;;;2.97;;
8279;SDS011;8335;42.646;23.380;2023-04-03T02:23:08;4.07;;;2.87;;
8279;SDS011;8335;42.646;23.380;2023-04-03T02:25:36;4.00;;;2.80;;
8279;SDS011;8335;42.646;23.380;2023-04-03T02:28:03;4.47;;;3.10;;
8279;SDS011;8335;42.646;23.380;2023-04-03T02:30:30;5.03;;;2.77;;
8279;SDS011;8335;42.646;23.380;2023-04-03T02:32:57;4.57;;;3.10;;
8279;SDS011;8335;42.646;23.380;2023-04-03T02:35:24;4.87;;;2.90;;
8279;SDS011;8335;42.646;23.380;2023-04-03T02:37:50;4.87;;;3.13;;
8279;SDS011;8335;42.646;23.380;2023-04-03T02:40:17;4.70;;;3.00;;
8279;SDS011;8335;42.646;23.380;2023-04-03T02:42:45;4.53;;;2.97;;
8279;SDS011;8335;42.646;23.380;2023-04-03T02:45:12;4.10;;;2.80;;
8279;SDS011;8335;42.646;23.380;2023-04-03T02:47:39;4.77;;;3.20;;
8279;SDS011;8335;42.646;23.380;2023-04-03T02:50:06;3.97;;;2.93;;
8279;SDS011;8335;42.646;23.380;2023-04-03T02:52:33;4.27;;;3.57;;
8279;SDS011;8335;42.646;23.380;2023-04-03T02:55:00;5.30;;;3.23;;
8279;SDS011;8335;42.646;23.380;2023-04-03T02:57:26;4.17;;;3.03;;
8279;SDS011;8335;42.646;23.380;2023-04-03T02:59:54;3.63;;;3.20;;
8279;SDS011;8335;42.646;23.380;2023-04-03T03:02:21;5.13;;;3.30;;
8279;SDS011;8335;42.646;23.380;2023-04-03T03:04:48;5.17;;;3.13;;
8279;SDS011;8335;42.646;23.380;2023-04-03T03:07:15;5.50;;;3.17;;
8279;SDS011;8335;42.646;23.380;2023-04-03T03:09:41;7.83;;;3.30;;
8279;SDS011;8335;42.646;23.380;2023-04-03T03:12:08;4.23;;;2.97;;
8279;SDS011;8335;42.646;23.380;2023-04-03T03:14:35;4.87;;;3.27;;
8279;SDS011;8335;42.646;23.380;2023-04-03T03:17:03;3.80;;;3.00;;
8279;SDS011;8335;42.646;23.380;2023-04-03T03:19:30;3.20;;;2.90;;
8279;SDS011;8335;42.646;23.380;2023-04-03T03:21:57;4.43;;;3.20;;
8279;SDS011;8335;42.646;23.380;2023-04-03T03:24:23;5.20;;;2.83;;
8279;SDS011;8335;42.646;23.380;2023-04-03T03:26:50;4.87;;;3.20;;
8279;SDS011;8335;42.646;23.380;2023-04-03T03:29:17;3.50;;;3.20;;
8279;SDS011;8335;42.646;23.380;2023-04-03T03:31:43;5.40;;;3.23;;
8279;SDS011;8335;42.646;23.380;2023-04-03T03:34:12;3.30;;;2.80;;
8279;SDS011;8335;42.646;23.380;2023-04-03T03:36:38;3.20;;;2.83;;
8279;SDS011;8335;42.646;23.380;2023-04-03T03:39:05;4.33;;;2.83;;
8279;SDS011;8335;42.646;23.380;2023-04-03T03:41:32;3.30;;;2.70;;
8279;SDS011;8335;42.646;23.380;2023-04-03T03:43:59;2.87;;;2.57;;
8279;SDS011;8335;42.646;23.380;2023-04-03T03:46:26;4.17;;;3.00;;
8279;SDS011;8335;42.646;23.380;2023-04-03T03:48:53;3.90;;;3.10;;
8279;SDS011;8335;42.646;23.380;2023-04-03T03:51:21;3.97;;;2.90;;
8279;SDS011;8335;42.646;23.380;2023-04-03T03:53:47;3.77;;;2.67;;
8279;SDS011;8335;42.646;23.380;2023-04-03T03:56:14;3.33;;;2.60;;
8279;SDS011;8335;42.646;23.380;2023-04-03T03:58:42;3.03;;;2.57;;
8279;SDS011;8335;42.646;23.380;2023-04-03T04:01:09;5.43;;;2.97;;
8279;SDS011;8335;42.646;23.380;2023-04-03T04:03:35;4.27;;;2.87;;
8279;SDS011;8335;42.646;23.380;2023-04-03T04:06:02;4.13;;;2.73;;
8279;SDS011;8335;42.646;23.380;2023-04-03T04:08:31;3.60;;;2.90;;
8279;SDS011;8335;42.646;23.380;2023-04-03T04:10:57;6.43;;;3.20;;
8279;SDS011;8335;42.646;23.380;2023-04-03T04:13:24;6.00;;;3.27;;
8279;SDS011;8335;42.646;23.380;2023-04-03T04:15:51;7.93;;;3.43;;
8279;SDS011;8335;42.646;23.380;2023-04-03T04:18:17;3.70;;;3.00;;
8279;SDS011;8335;42.646;23.380;2023-04-03T04:20:45;6.03;;;3.17;;
8279;SDS011;8335;42.646;23.380;2023-04-03T04:23:12;4.03;;;3.20;;
8279;SDS011;8335;42.646;23.380;2023-04-03T04:25:40;4.37;;;3.57;;
8279;SDS011;8335;42.646;23.380;2023-04-03T04:28:06;5.67;;;3.50;;
8279;SDS011;8335;42.646;23.380;2023-04-03T04:30:33;5.30;;;3.17;;
8279;SDS011;8335;42.646;23.380;2023-04-03T04:33:00;8.90;;;3.40;;
8279;SDS011;8335;42.646;23.380;2023-04-03T04:35:27;6.57;;;4.33;;
8279;SDS011;8335;42.646;23.380;2023-04-03T04:37:53;3.90;;;3.23;;
8279;SDS011;8335;42.646;23.380;2023-04-03T04:40:20;6.17;;;3.60;;
8279;SDS011;8335;42.646;23.380;2023-04-03T04:42:48;5.93;;;3.80;;
8279;SDS011;8335;42.646;23.380;2023-04-03T04:45:15;8.60;;;4.07;;
8279;SDS011;8335;42.646;23.380;2023-04-03T04:47:42;11.00;;;4.20;;
8279;SDS011;8335;42.646;23.380;2023-04-03T04:50:09;8.00;;;4.17;;
8279;SDS011;8335;42.646;23.380;2023-04-03T04:52:36;9.00;;;4.20;;
8279;SDS011;8335;42.646;23.380;2023-04-03T04:55:04;8.27;;;3.90;;
8279;SDS011;8335;42.646;23.380;2023-04-03T04:57:31;9.73;;;4.07;;
8279;SDS011;8335;42.646;23.380;2023-04-03T04:59:59;9.70;;;4.70;;
8279;SDS011;8335;42.646;23.380;2023-04-03T05:02:26;12.83;;;4.87;;
8279;SDS011;8335;42.646;23.380;2023-04-03T05:04:52;14.20;;;5.80;;
8279;SDS011;8335;42.646;23.380;2023-04-03T05:07:19;5.70;;;3.70;;
8279;SDS011;8335;42.646;23.380;2023-04-03T05:09:46;6.33;;;3.30;;
8279;SDS011;8335;42.646;23.380;2023-04-03T05:12:13;6.03;;;3.30;;
8279;SDS011;8335;42.646;23.380;2023-04-03T05:14:39;6.10;;;3.13;;
8279;SDS011;8335;42.646;23.380;2023-04-03T05:17:08;5.17;;;2.93;;
8279;SDS011;8335;42.646;23.380;2023-04-03T05:19:34;6.27;;;3.47;;
8279;SDS011;8335;42.646;23.380;2023-04-03T05:22:02;8.37;;;3.40;;
8279;SDS011;8335;42.646;23.380;2023-04-03T05:24:28;3.90;;;2.97;;
8279;SDS011;8335;42.646;23.380;2023-04-03T05:26:55;8.23;;;3.30;;
8279;SDS011;8335;42.646;23.380;2023-04-03T05:29:22;3.93;;;3.10;;
8279;SDS011;8335;42.646;23.380;2023-04-03T05:31:49;5.73;;;3.90;;
8279;SDS011;8335;42.646;23.380;2023-04-03T05:34:17;10.57;;;3.60;;
8279;SDS011;8335;42.646;23.380;2023-04-03T05:36:44;12.13;;;3.57;;
8279;SDS011;8335;42.646;23.380;2023-04-03T05:39:10;10.63;;;4.03;;
8279;SDS011;8335;42.646;23.380;2023-04-03T05:41:37;9.70;;;4.60;;
8279;SDS011;8335;42.646;23.380;2023-04-03T05:44:04;8.30;;;4.20;;
8279;SDS011;8335;42.646;23.380;2023-04-03T05:46:31;13.00;;;4.30;;
8279;SDS011;8335;42.646;23.380;2023-04-03T05:48:58;9.23;;;3.80;;
8279;SDS011;8335;42.646;23.380;2023-04-03T05:51:28;12.47;;;4.43;;
8279;SDS011;8335;42.646;23.380;2023-04-03T05:54:01;13.33;;;5.20;;
8279;SDS011;8335;42.646;23.380;2023-04-03T05:56:33;11.47;;;5.10;;
8279;SDS011;8335;42.646;23.380;2023-04-03T05:58:59;8.37;;;4.80;;
8279;SDS011;8335;42.646;23.380;2023-04-03T06:01:26;16.10;;;5.40;;
8279;SDS011;8335;42.646;23.380;2023-04-03T06:03:53;14.20;;;5.53;;
8279;SDS011;8335;42.646;23.380;2023-04-03T06:06:20;13.67;;;5.23;;
8279;SDS011;8335;42.646;23.380;2023-04-03T06:08:49;11.33;;;6.10;;
8279;SDS011;8335;42.646;23.380;2023-04-03T06:11:16;18.17;;;6.80;;
8279;SDS011;8335;42.646;23.380;2023-04-03T06:13:43;23.30;;;7.00;;
8279;SDS011;8335;42.646;23.380;2023-04-03T06:16:11;22.57;;;7.20;;
8279;SDS011;8335;42.646;23.380;2023-04-03T06:18:40;14.83;;;6.20;;
8279;SDS011;8335;42.646;23.380;2023-04-03T06:21:07;21.57;;;6.90;;
8279;SDS011;8335;42.646;23.380;2023-04-03T06:23:34;12.27;;;5.80;;
8279;SDS011;8335;42.646;23.380;2023-04-03T06:26:02;12.50;;;6.90;;
8279;SDS011;8335;42.646;23.380;2023-04-03T06:28:29;13.80;;;5.73;;
8279;SDS011;8335;42.646;23.380;2023-04-03T06:30:56;10.40;;;6.13;;
8279;SDS011;8335;42.646;23.380;2023-04-03T06:33:22;12.07;;;6.87;;
8279;SDS011;8335;42.646;23.380;2023-04-03T06:35:49;12.90;;;5.43;;
8279;SDS011;8335;42.646;23.380;2023-04-03T06:38:21;9.73;;;5.73;;
8279;SDS011;8335;42.646;23.380;2023-04-03T06:40:48;13.17;;;6.37;;
8279;SDS011;8335;42.646;23.380;2023-04-03T06:43:18;11.33;;;5.80;;
8279;SDS011;8335;42.646;23.380;2023-04-03T06:45:45;9.57;;;5.13;;
8279;SDS011;8335;42.646;23.380;2023-04-03T06:48:12;9.03;;;5.37;;
8279;SDS011;8335;42.646;23.380;2023-04-03T06:50:39;11.47;;;5.23;;
8279;SDS011;8335;42.646;23.380;2023-04-03T06:53:06;9.60;;;4.73;;
8279;SDS011;8335;42.646;23.380;2023-04-03T06:55:33;11.27;;;4.80;;
8279;SDS011;8335;42.646;23.380;2023-04-03T06:58:00;11.20;;;4.80;;
8279;SDS011;8335;42.646;23.380;2023-04-03T07:00:30;19.53;;;5.50;;
8279;SDS011;8335;42.646;23.380;2023-04-03T07:02:56;8.43;;;4.43;;
8279;SDS011;8335;42.646;23.380;2023-04-03T07:05:23;8.13;;;4.83;;
8279;SDS011;8335;42.646;23.380;2023-04-03T07:07:50;11.27;;;4.70;;
8279;SDS011;8335;42.646;23.380;2023-04-03T07:10:17;7.33;;;4.83;;
8279;SDS011;8335;42.646;23.380;2023-04-03T07:12:45;11.33;;;5.63;;
8279;SDS011;8335;42.646;23.380;2023-04-03T07:15:11;10.33;;;5.23;;
8279;SDS011;8335;42.646;23.380;2023-04-03T07:17:40;9.97;;;5.00;;
8279;SDS011;8335;42.646;23.380;2023-04-03T07:20:08;14.83;;;5.90;;
8279;SDS011;8335;42.646;23.380;2023-04-03T07:22:35;11.27;;;6.57;;
8279;SDS011;8335;42.646;23.380;2023-04-03T07:25:03;22.03;;;7.37;;
8279;SDS011;8335;42.646;23.380;2023-04-03T07:27:32;15.13;;;6.80;;
8279;SDS011;8335;42.646;23.380;2023-04-03T07:29:59;15.63;;;6.97;;
8279;SDS011;8335;42.646;23.380;2023-04-03T07:32:26;16.20;;;7.90;;
8279;SDS011;8335;42.646;23.380;2023-04-03T07:34:54;13.57;;;8.53;;
8279;SDS011;8335;42.646;23.380;2023-04-03T07:37:21;18.67;;;9.17;;
8279;SDS011;8335;42.646;23.380;2023-04-03T07:39:47;16.10;;;9.40;;
8279;SDS011;8335;42.646;23.380;2023-04-03T07:42:14;13.07;;;8.27;;
8279;SDS011;8335;42.646;23.380;2023-04-03T07:44:41;25.00;;;11.47;;
8279;SDS011;8335;42.646;23.380;2023-04-03T07:47:08;28.77;;;13.93;;
8279;SDS011;8335;42.646;23.380;2023-04-03T07:49:35;27.60;;;13.90;;
8279;SDS011;8335;42.646;23.380;2023-04-03T07:52:06;32.67;;;15.50;;
8279;SDS011;8335;42.646;23.380;2023-04-03T07:54:34;24.23;;;15.20;;
8279;SDS011;8335;42.646;23.380;2023-04-03T07:57:01;33.77;;;16.30;;
8279;SDS011;8335;42.646;23.380;2023-04-03T07:59:28;30.00;;;15.20;;
8279;SDS011;8335;42.646;23.380;2023-04-03T08:01:55;32.17;;;15.40;;
8279;SDS011;8335;42.646;23.380;2023-04-03T08:04:22;28.30;;;15.90;;
8279;SDS011;8335;42.646;23.380;2023-04-03T08:06:48;30.17;;;15.13;;
8279;SDS011;8335;42.646;23.380;2023-04-03T08:09:17;28.50;;;15.90;;
8279;SDS011;8335;42.646;23.380;2023-04-03T08:11:44;27.67;;;15.50;;
8279;SDS011;8335;42.646;23.380;2023-04-03T08:14:12;26.57;;;16.07;;
8279;SDS011;8335;42.646;23.380;2023-04-03T08:16:43;29.83;;;15.17;;
8279;SDS011;8335;42.646;23.380;2023-04-03T08:19:10;28.73;;;15.50;;
8279;SDS011;8335;42.646;23.380;2023-04-03T08:21:39;24.43;;;15.20;;
8279;SDS011;8335;42.646;23.380;2023-04-03T08:24:06;33.77;;;15.87;;
8279;SDS011;8335;42.646;23.380;2023-04-03T08:26:35;27.43;;;16.77;;
8279;SDS011;8335;42.646;23.380;2023-04-03T08:29:02;32.40;;;16.97;;
8279;SDS011;8335;42.646;23.380;2023-04-03T08:31:29;28.50;;;15.60;;
8279;SDS011;8335;42.646;23.380;2023-04-03T08:33:56;26.23;;;14.70;;
8279;SDS011;8335;42.646;23.380;2023-04-03T08:36:24;29.70;;;15.40;;
8279;SDS011;8335;42.646;23.380;2023-04-03T08:38:52;33.53;;;15.63;;
8279;SDS011;8335;42.646;23.380;2023-04-03T08:41:20;29.50;;;14.80;;
8279;SDS011;8335;42.646;23.380;2023-04-03T08:43:58;27.33;;;14.43;;
8279;SDS011;8335;42.646;23.380;2023-04-03T08:46:33;24.73;;;14.37;;
8279;SDS011;8335;42.646;23.380;2023-04-03T08:49:11;27.57;;;12.80;;
8279;SDS011;8335;42.646;23.380;2023-04-03T08:51:48;31.03;;;14.40;;
8279;SDS011;8335;42.646;23.380;2023-04-03T08:54:20;25.97;;;13.17;;
8279;SDS011;8335;42.646;23.380;2023-04-03T08:56:54;23.00;;;12.73;;
8279;SDS011;8335;42.646;23.380;2023-04-03T08:59:26;27.97;;;12.67;;
8279;SDS011;8335;42.646;23.380;2023-04-03T09:01:56;24.43;;;12.20;;
8279;SDS011;8335;42.646;23.380;2023-04-03T09:04:27;25.83;;;10.97;;
8279;SDS011;8335;42.646;23.380;2023-04-03T09:06:59;18.73;;;10.83;;
8279;SDS011;8335;42.646;23.380;2023-04-03T09:09:32;19.27;;;10.37;;
8279;SDS011;8335;42.646;23.380;2023-04-03T09:12:04;19.07;;;10.10;;
8279;SDS011;8335;42.646;23.380;2023-04-03T09:14:39;25.80;;;11.00;;
8279;SDS011;8335;42.646;23.380;2023-04-03T09:17:12;17.07;;;9.77;;
8279;SDS011;8335;42.646;23.380;2023-04-03T09:19:45;14.47;;;9.20;;
8279;SDS011;8335;42.646;23.380;2023-04-03T09:22:18;11.53;;;8.63;;
8279;SDS011;8335;42.646;23.380;2023-04-03T09:24:49;14.63;;;9.13;;
8279;SDS011;8335;42.646;23.380;2023-04-03T09:27:24;14.17;;;7.90;;
8279;SDS011;8335;42.646;23.380;2023-04-03T09:29:53;16.97;;;7.73;;
8279;SDS011;8335;42.646;23.380;2023-04-03T09:32:25;14.73;;;7.00;;
8279;SDS011;8335;42.646;23.380;2023-04-03T09:34:53;11.73;;;7.13;;
8279;SDS011;8335;42.646;23.380;2023-04-03T09:37:35;10.00;;;6.57;;
8279;SDS011;8335;42.646;23.380;2023-04-03T09:40:04;8.07;;;4.50;;
8279;SDS011;8335;42.646;23.380;2023-04-03T09:42:32;9.83;;;4.60;;
8279;SDS011;8335;42.646;23.380;2023-04-03T09:45:21;10.93;;;4.73;;
8279;SDS011;8335;42.646;23.380;2023-04-03T09:47:57;5.70;;;4.17;;
8279;SDS011;8335;42.646;23.380;2023-04-03T09:50:32;7.47;;;4.60;;
8279;SDS011;8335;42.646;23.380;2023-04-03T09:53:02;8.47;;;4.53;;
8279;SDS011;8335;42.646;23.380;2023-04-03T09:55:32;8.50;;;4.60;;
8279;SDS011;8335;42.646;23.380;2023-04-03T09:58:00;7.73;;;4.80;;
8279;SDS011;8335;42.646;23.380;2023-04-03T10:00:30;9.73;;;5.63;;
8279;SDS011;8335;42.646;23.380;2023-04-03T10:03:00;13.53;;;5.80;;
8279;SDS011;8335;42.646;23.380;2023-04-03T10:05:29;10.03;;;5.37;;
8279;SDS011;8335;42.646;23.380;2023-04-03T10:08:08;13.27;;;6.67;;
8279;SDS011;8335;42.646;23.380;2023-04-03T10:10:37;8.63;;;5.23;;
8279;SDS011;8335;42.646;23.380;2023-04-03T10:13:06;9.60;;;5.73;;
8279;SDS011;8335;42.646;23.380;2023-04-03T10:15:36;13.30;;;5.53;;
8279;SDS011;8335;42.646;23.380;2023-04-03T10:18:10;8.30;;;4.37;;
8279;SDS011;8335;42.646;23.380;2023-04-03T10:20:59;5.23;;;3.90;;
8279;SDS011;8335;42.646;23.380;2023-04-03T10:23:31;6.83;;;4.17;;
8279;SDS011;8335;42.646;23.380;2023-04-03T10:26:09;7.97;;;4.23;;
8279;SDS011;8335;42.646;23.380;2023-04-03T10:28:44;9.00;;;3.93;;
8279;SDS011;8335;42.646;23.380;2023-04-03T10:31:21;7.93;;;3.70;;
8279;SDS011;8335;42.646;23.380;2023-04-03T10:33:53;4.37;;;3.07;;
8279;SDS011;8335;42.646;23.380;2023-04-03T10:36:32;5.17;;;3.20;;
8279;SDS011;8335;42.646;23.380;2023-04-03T10:39:05;5.13;;;3.13;;
8279;SDS011;8335;42.646;23.380;2023-04-03T10:41:44;4.07;;;3.00;;
8279;SDS011;8335;42.646;23.380;2023-04-03T10:44:20;4.70;;;3.00;;
8279;SDS011;8335;42.646;23.380;2023-04-03T10:47:00;4.90;;;3.10;;
8279;SDS011;8335;42.646;23.380;2023-04-03T10:49:38;5.30;;;3.07;;
8279;SDS011;8335;42.646;23.380;2023-04-03T10:52:14;8.27;;;4.47;;
8279;SDS011;8335;42.646;23.380;2023-04-03T10:54:46;6.73;;;2.83;;
8279;SDS011;8335;42.646;23.380;2023-04-03T10:57:22;6.03;;;3.67;;
8279;SDS011;8335;42.646;23.380;2023-04-03T10:59:51;4.53;;;2.73;;
8279;SDS011;8335;42.646;23.380;2023-04-03T11:02:23;3.50;;;2.77;;
8279;SDS011;8335;42.646;23.380;2023-04-03T11:04:54;4.83;;;3.03;;
8279;SDS011;8335;42.646;23.380;2023-04-03T11:07:26;3.13;;;2.70;;
8279;SDS011;8335;42.646;23.380;2023-04-03T11:09:57;6.77;;;3.00;;
8279;SDS011;8335;42.646;23.380;2023-04-03T11:12:32;4.87;;;2.97;;
8279;SDS011;8335;42.646;23.380;2023-04-03T11:15:05;5.60;;;3.67;;
8279;SDS011;8335;42.646;23.380;2023-04-03T11:17:39;4.37;;;3.60;;
8279;SDS011;8335;42.646;23.380;2023-04-03T11:20:15;4.97;;;3.70;;
8279;SDS011;8335;42.646;23.380;2023-04-03T11:22:47;5.53;;;3.53;;
8279;SDS011;8335;42.646;23.380;2023-04-03T11:25:18;4.93;;;3.70;;
8279;SDS011;8335;42.646;23.380;2023-04-03T11:27:49;4.53;;;3.60;;
8279;SDS011;8335;42.646;23.380;2023-04-03T11:30:20;7.37;;;3.80;;
8279;SDS011;8335;42.646;23.380;2023-04-03T11:33:08;4.13;;;3.30;;
8279;SDS011;8335;42.646;23.380;2023-04-03T11:35:47;4.97;;;3.47;;
8279;SDS011;8335;42.646;23.380;2023-04-03T11:38:19;5.17;;;3.20;;
8279;SDS011;8335;42.646;23.380;2023-04-03T11:40:51;4.73;;;3.40;;
8279;SDS011;8335;42.646;23.380;2023-04-03T11:43:22;5.27;;;3.70;;
8279;SDS011;8335;42.646;23.380;2023-04-03T11:45:55;4.20;;;3.80;;
8279;SDS011;8335;42.646;23.380;2023-04-03T11:51:40;8.07;;;4.43;;
8279;SDS011;8335;42.646;23.380;2023-04-03T12:03:30;5.53;;;4.63;;
8279;SDS011;8335;42.646;23.380;2023-04-03T12:09:24;6.27;;;4.40;;
8279;SDS011;8335;42.646;23.380;2023-04-03T12:12:24;7.97;;;5.27;;
8279;SDS011;8335;42.646;23.380;2023-04-03T12:14:55;9.60;;;4.63;;
8279;SDS011;8335;42.646;23.380;2023-04-03T12:17:22;6.93;;;4.43;;
8279;SDS011;8335;42.646;23.380;2023-04-03T12:19:54;6.17;;;4.20;;
8279;SDS011;8335;42.646;23.380;2023-04-03T12:22:22;5.33;;;4.13;;
8279;SDS011;8335;42.646;23.380;2023-04-03T12:24:49;5.70;;;4.67;;
8279;SDS011;8335;42.646;23.380;2023-04-03T12:27:20;6.13;;;3.97;;
8279;SDS011;8335;42.646;23.380;2023-04-03T12:29:53;4.37;;;3.63;;
8279;SDS011;8335;42.646;23.380;2023-04-03T12:32:26;4.63;;;4.10;;
8279;SDS011;8335;42.646;23.380;2023-04-03T12:35:14;7.10;;;4.00;;
8279;SDS011;8335;42.646;23.380;2023-04-03T12:37:54;5.90;;;4.33;;
8279;SDS011;8335;42.646;23.380;2023-04-03T12:40:42;6.10;;;4.43;;
8279;SDS011;8335;42.646;23.380;2023-04-03T12:43:20;8.40;;;4.67;;
8279;SDS011;8335;42.646;23.380;2023-04-03T12:46:03;7.83;;;5.03;;
8279;SDS011;8335;42.646;23.380;2023-04-03T12:48:32;5.80;;;5.10;;
8279;SDS011;8335;42.646;23.380;2023-04-03T12:51:04;9.27;;;5.47;;
8279;SDS011;8335;42.646;23.380;2023-04-03T12:53:34;6.17;;;4.80;;
8279;SDS011;8335;42.646;23.380;2023-04-03T12:56:19;7.73;;;4.57;;
8279;SDS011;8335;42.646;23.380;2023-04-03T12:58:50;5.73;;;4.67;;
8279;SDS011;8335;42.646;23.380;2023-04-03T13:01:18;6.10;;;4.77;;
8279;SDS011;8335;42.646;23.380;2023-04-03T13:03:48;6.63;;;4.80;;
8279;SDS011;8335;42.646;23.380;2023-04-03T13:06:18;7.30;;;5.20;;
8279;SDS011;8335;42.646;23.380;2023-04-03T13:08:51;5.80;;;4.97;;
8279;SDS011;8335;42.646;23.380;2023-04-03T13:11:19;8.17;;;5.47;;
8279;SDS011;8335;42.646;23.380;2023-04-03T13:13:57;6.27;;;5.53;;
8279;SDS011;8335;42.646;23.380;2023-04-03T13:16:25;6.23;;;5.50;;
8279;SDS011;8335;42.646;23.380;2023-04-03T13:18:53;7.57;;;5.50;;
8279;SDS011;8335;42.646;23.380;2023-04-03T13:21:21;8.70;;;6.43;;
8279;SDS011;8335;42.646;23.380;2023-04-03T13:23:56;8.53;;;5.93;;
8279;SDS011;8335;42.646;23.380;2023-04-03T13:26:26;6.60;;;5.90;;
8279;SDS011;8335;42.646;23.380;2023-04-03T13:28:59;7.77;;;5.87;;
8279;SDS011;8335;42.646;23.380;2023-04-03T13:31:30;7.27;;;6.50;;
8279;SDS011;8335;42.646;23.380;2023-04-03T13:34:02;7.37;;;5.83;;
8279;SDS011;8335;42.646;23.380;2023-04-03T13:36:33;9.13;;;6.83;;
8279;SDS011;8335;42.646;23.380;2023-04-03T13:39:04;10.37;;;8.03;;
8279;SDS011;8335;42.646;23.380;2023-04-03T13:41:33;13.67;;;8.90;;
8279;SDS011;8335;42.646;23.380;2023-04-03T13:44:22;13.93;;;7.60;;
8279;SDS011;8335;42.646;23.380;2023-04-03T13:46:54;11.47;;;8.17;;
8279;SDS011;8335;42.646;23.380;2023-04-03T13:49:27;9.33;;;7.63;;
8279;SDS011;8335;42.646;23.380;2023-04-03T13:51:56;10.50;;;7.83;;
8279;SDS011;8335;42.646;23.380;2023-04-03T13:54:28;8.63;;;7.53;;
8279;SDS011;8335;42.646;23.380;2023-04-03T13:56:58;8.70;;;6.73;;
8279;SDS011;8335;42.646;23.380;2023-04-03T13:59:27;7.80;;;6.63;;
8279;SDS011;8335;42.646;23.380;2023-04-03T14:02:05;7.43;;;6.63;;
8279;SDS011;8335;42.646;23.380;2023-04-03T14:04:50;7.87;;;6.70;;
8279;SDS011;8335;42.646;23.380;2023-04-03T14:07:21;9.30;;;7.40;;
8279;SDS011;8335;42.646;23.380;2023-04-03T14:09:50;9.90;;;7.40;;
8279;SDS011;8335;42.646;23.380;2023-04-03T14:12:18;9.20;;;7.27;;
8279;SDS011;8335;42.646;23.380;2023-04-03T14:14:51;10.73;;;7.97;;
8279;SDS011;8335;42.646;23.380;2023-04-03T14:17:19;10.87;;;7.63;;
8279;SDS011;8335;42.646;23.380;2023-04-03T14:19:48;9.80;;;6.90;;
8279;SDS011;8335;42.646;23.380;2023-04-03T14:22:17;10.47;;;7.17;;
8279;SDS011;8335;42.646;23.380;2023-04-03T14:24:46;8.97;;;7.13;;
8279;SDS011;8335;42.646;23.380;2023-04-03T14:27:17;10.50;;;7.67;;
8279;SDS011;8335;42.646;23.380;2023-04-03T14:29:46;11.10;;;8.23;;
8279;SDS011;8335;42.646;23.380;2023-04-03T14:32:13;10.37;;;8.13;;
8279;SDS011;8335;42.646;23.380;2023-04-03T14:34:42;9.17;;;8.03;;
8279;SDS011;8335;42.646;23.380;2023-04-03T14:37:10;12.57;;;8.57;;
8279;SDS011;8335;42.646;23.380;2023-04-03T14:39:39;11.70;;;8.17;;
8279;SDS011;8335;42.646;23.380;2023-04-03T14:42:06;9.13;;;7.97;;
8279;SDS011;8335;42.646;23.380;2023-04-03T14:44:39;9.57;;;7.57;;
8279;SDS011;8335;42.646;23.380;2023-04-03T14:47:08;8.80;;;7.30;;
8279;SDS011;8335;42.646;23.380;2023-04-03T14:49:36;8.77;;;7.43;;
8279;SDS011;8335;42.646;23.380;2023-04-03T14:52:03;13.10;;;7.50;;
8279;SDS011;8335;42.646;23.380;2023-04-03T14:54:30;9.30;;;8.07;;
8279;SDS011;8335;42.646;23.380;2023-04-03T14:56:58;10.17;;;8.27;;
8279;SDS011;8335;42.646;23.380;2023-04-03T14:59:26;9.37;;;7.73;;
8279;SDS011;8335;42.646;23.380;2023-04-03T15:01:54;9.73;;;7.43;;
8279;SDS011;8335;42.646;23.380;2023-04-03T15:04:21;7.77;;;6.30;;
8279;SDS011;8335;42.646;23.380;2023-04-03T15:06:48;8.10;;;6.60;;
8279;SDS011;8335;42.646;23.380;2023-04-03T15:09:18;9.17;;;6.30;;
8279;SDS011;8335;42.646;23.380;2023-04-03T15:11:48;8.50;;;5.60;;
8279;SDS011;8335;42.646;23.380;2023-04-03T15:14:15;8.63;;;5.50;;
8279;SDS011;8335;42.646;23.380;2023-04-03T15:16:42;7.90;;;5.07;;
8279;SDS011;8335;42.646;23.380;2023-04-03T15:19:11;5.70;;;5.20;;
8279;SDS011;8335;42.646;23.380;2023-04-03T15:21:38;6.73;;;5.10;;
8279;SDS011;8335;42.646;23.380;2023-04-03T15:24:05;5.83;;;4.67;;
8279;SDS011;8335;42.646;23.380;2023-04-03T15:26:33;5.57;;;5.07;;
8279;SDS011;8335;42.646;23.380;2023-04-03T15:28:59;7.10;;;4.93;;